»·PEaware :: N242SK KLAS-KSNA

N242SK :: KLAS-KSNA

FLIGHT INFORMATION

Flight Status: Arrived
Operator: Privately registered:
United States
More flights under this callsign
Pilot: Sanjiv S. (4490)
Aircraft: SOCATA TBM-900
(TBM9)
More flights by this aircraft type
Origin: KLAS McCarran Intl
United States
Destination: KSNA John Wayne-Orange Co
United States
More flights between these airports :: More routes between these airports
Route: +LAS GFS FEYLA DSNEE4
File this flight plan on PilotEdge
Remarks:
Altitude:
(Current/Filed)
26,000ft
Speed:
(Current/Filed)
280kts
Departed: 05-Nov-18 10:39 AM
Arrived: 05-Nov-18 11:53 AM
Distance/Time
Traveled:
197nm/1:13
Distance/Time
To Go:
Arrived

Flight Plot

Page will automatically refresh every two minutes.

Flight plan parsing failed; only flown route is shown


Map Options




Map Legend


Flown Route
Filed Route
Departure Airport
Arrival Airport
Navaid (VOR, NDB)
Fix

Horizontal Profiles

Position Reports

Time Latitude Longitude Heading Altitude Ground
Speed
05-Nov-18 10:02 36.080675 -115.171612 87 2114ft 0kts
05-Nov-18 10:03 36.080675 -115.171612 87 2114ft 0kts
05-Nov-18 10:04 36.080675 -115.171612 87 2114ft 0kts
05-Nov-18 10:05 36.080675 -115.171612 87 2114ft 0kts
05-Nov-18 10:06 36.080675 -115.171612 87 2114ft 0kts
05-Nov-18 10:07 36.080675 -115.171612 87 2114ft 0kts
05-Nov-18 10:08 36.080675 -115.171612 87 2114ft 0kts
05-Nov-18 10:09 36.080675 -115.171612 87 2114ft 0kts
05-Nov-18 10:10 36.080675 -115.171612 87 2114ft 0kts
05-Nov-18 10:11 36.080675 -115.171612 87 2114ft 0kts
05-Nov-18 10:12 36.080675 -115.171612 87 2114ft 0kts
05-Nov-18 10:13 36.080675 -115.171612 87 2114ft 0kts
05-Nov-18 10:14 36.080675 -115.171612 87 2114ft 0kts
05-Nov-18 10:15 36.080675 -115.171612 87 2114ft 0kts
05-Nov-18 10:16 36.080675 -115.171612 87 2114ft 0kts
05-Nov-18 10:17 36.080675 -115.171612 87 2114ft 0kts
05-Nov-18 10:18 36.080675 -115.171612 87 2114ft 0kts
05-Nov-18 10:19 36.080675 -115.171612 87 2114ft 0kts
05-Nov-18 10:20 36.080675 -115.171612 87 2114ft 0kts
05-Nov-18 10:20 36.080675 -115.171612 87 2114ft 0kts
05-Nov-18 10:22 36.080675 -115.171612 87 2114ft 0kts
05-Nov-18 10:23 36.080675 -115.171612 87 2114ft 0kts
05-Nov-18 10:24 36.080675 -115.171612 87 2114ft 0kts
05-Nov-18 10:25 36.080675 -115.171612 87 2114ft 0kts
05-Nov-18 10:26 36.080675 -115.171612 87 2114ft 0kts
05-Nov-18 10:26 36.080675 -115.171612 87 2114ft 0kts
05-Nov-18 10:27 36.080675 -115.171612 87 2114ft 0kts
05-Nov-18 10:28 36.080675 -115.171612 87 2114ft 0kts
05-Nov-18 10:29 36.080675 -115.171612 87 2114ft 0kts
05-Nov-18 10:30 36.080675 -115.171612 87 2114ft 0kts
05-Nov-18 10:32 36.080675 -115.171612 87 2114ft 0kts
05-Nov-18 10:33 36.082013 -115.171177 102 2114ft 0kts
05-Nov-18 10:34 36.082013 -115.171177 102 2114ft 0kts
05-Nov-18 10:35 36.081487 -115.169762 92 2114ft 0kts
05-Nov-18 10:36 36.081487 -115.169762 92 2114ft 0kts
05-Nov-18 10:37 36.080153 -115.169900 215 2114ft 11kts
05-Nov-18 10:38 36.078019 -115.170210 90 2114ft 1kts
05-Nov-18 10:39 36.078020 -115.169970 89 2114ft 0kts
05-Nov-18 10:40 36.078020 -115.169970 89 2114ft 0kts
05-Nov-18 10:41 36.078020 -115.169970 89 2114ft 0kts
05-Nov-18 10:42 36.080516 -115.167404 24 2114ft 72kts
05-Nov-18 10:43 36.112310 -115.155126 331 3648ft 137kts
05-Nov-18 10:44 36.137875 -115.200995 302 4503ft 177kts
05-Nov-18 10:45 36.120974 -115.237494 183 5489ft 158kts
05-Nov-18 10:46 36.077354 -115.235273 177 6890ft 172kts
05-Nov-18 10:47 36.026621 -115.232139 177 8344ft 199kts
05-Nov-18 10:48 35.971186 -115.228663 177 9738ft 207kts
05-Nov-18 10:49 35.914691 -115.225117 177 11108ft 207kts
05-Nov-18 10:50 35.861457 -115.221779 177 12396ft 206kts
05-Nov-18 10:51 35.805692 -115.218288 177 13758ft 202kts
05-Nov-18 10:52 35.750088 -115.214812 177 14733ft 215kts
05-Nov-18 10:53 35.687900 -115.210927 177 14983ft 237kts
05-Nov-18 10:54 35.621669 -115.206798 177 15002ft 247kts
05-Nov-18 10:55 35.553654 -115.202565 177 15000ft 250kts
05-Nov-18 10:56 35.485823 -115.198353 177 15002ft 251kts
05-Nov-18 10:57 35.421369 -115.194363 177 16505ft 229kts
05-Nov-18 10:58 35.361454 -115.190655 177 18105ft 221kts
05-Nov-18 10:59 35.302233 -115.186993 177 19741ft 214kts
05-Nov-18 11:00 35.245086 -115.183463 177 21372ft 207kts
05-Nov-18 11:01 35.186032 -115.179827 177 23081ft 224kts
05-Nov-18 11:02 35.132849 -115.198957 258 24705ft 229kts
05-Nov-18 11:03 35.144058 -115.274717 280 25894ft 245kts
05-Nov-18 11:04 35.155624 -115.358794 279 25997ft 263kts
05-Nov-18 11:05 35.167396 -115.447100 279 25993ft 272kts
05-Nov-18 11:06 35.179398 -115.537766 279 25991ft 275kts
05-Nov-18 11:07 35.191422 -115.629139 279 25992ft 279kts
05-Nov-18 11:08 35.202390 -115.712976 278 25991ft 282kts
05-Nov-18 11:09 35.214418 -115.805451 278 25991ft 283kts
05-Nov-18 11:10 35.216252 -115.898194 250 25993ft 283kts
05-Nov-18 11:11 35.170864 -115.971417 226 25991ft 283kts
05-Nov-18 11:12 35.118012 -116.038611 225 25990ft 283kts
05-Nov-18 11:13 35.065098 -116.105211 225 25990ft 283kts
05-Nov-18 11:14 35.011700 -116.172266 225 25990ft 283kts
05-Nov-18 11:15 34.958376 -116.239094 225 25990ft 283kts
05-Nov-18 11:16 34.905271 -116.305516 225 25990ft 283kts
05-Nov-18 11:17 34.862582 -116.359414 226 25990ft 283kts
05-Nov-18 11:18 34.813895 -116.421453 226 25990ft 283kts
05-Nov-18 11:19 34.765268 -116.483320 226 25990ft 283kts
05-Nov-18 11:20 34.717337 -116.544185 226 25435ft 280kts
05-Nov-18 11:21 34.666637 -116.600688 219 24660ft 273kts
05-Nov-18 11:22 34.615104 -116.651280 218 23355ft 270kts
05-Nov-18 11:23 34.581813 -116.683841 218 22614ft 270kts
05-Nov-18 11:24 34.533451 -116.731068 218 21670ft 264kts
05-Nov-18 11:25 34.487496 -116.779052 223 20702ft 259kts
05-Nov-18 11:26 34.446566 -116.826550 223 19417ft 251kts
05-Nov-18 11:27 34.406504 -116.873018 223 17600ft 237kts
05-Nov-18 11:28 34.376684 -116.907581 223 16399ft 221kts
05-Nov-18 11:29 34.341707 -116.948072 223 15076ft 205kts
05-Nov-18 11:30 34.309444 -116.985234 223 14018ft 192kts
05-Nov-18 11:31 34.280300 -117.018749 223 14030ft 202kts
05-Nov-18 11:32 34.251588 -117.044459 211 13604ft 198kts
05-Nov-18 11:33 34.210701 -117.074169 210 12173ft 218kts
05-Nov-18 11:34 34.168035 -117.103979 204 12002ft 226kts
05-Nov-18 11:35 34.120471 -117.129774 203 12001ft 229kts
05-Nov-18 11:36 34.071727 -117.155925 203 12000ft 230kts
05-Nov-18 11:37 34.025656 -117.180577 203 12000ft 230kts
05-Nov-18 11:38 33.983632 -117.214555 228 11472ft 230kts
05-Nov-18 11:39 33.951686 -117.258955 229 10588ft 218kts
05-Nov-18 11:40 33.921704 -117.301043 229 9727ft 212kts
05-Nov-18 11:41 33.894638 -117.339315 229 8934ft 208kts
05-Nov-18 11:42 33.864692 -117.381629 229 8362ft 223kts
05-Nov-18 11:43 33.831727 -117.428150 229 8068ft 226kts
05-Nov-18 11:44 33.808793 -117.476763 249 7724ft 227kts
05-Nov-18 11:45 33.799433 -117.530720 271 7500ft 213kts
05-Nov-18 11:46 33.800693 -117.583549 271 7447ft 208kts
05-Nov-18 11:47 33.802065 -117.637501 272 6420ft 218kts
05-Nov-18 11:48 33.817770 -117.679905 299 5820ft 210kts
05-Nov-18 11:49 33.841283 -117.729402 299 5010ft 210kts
05-Nov-18 11:50 33.844555 -117.778656 232 4233ft 208kts
05-Nov-18 11:51 33.804316 -117.792830 187 3510ft 207kts
05-Nov-18 11:52 33.763954 -117.813138 207 2516ft 206kts
05-Nov-18 11:53 33.729489 -117.834555 206 1188ft 165kts
05-Nov-18 11:54 33.704423 -117.850354 209 624ft 136kts
05-Nov-18 11:55 33.684749 -117.863063 207 189ft 98kts
05-Nov-18 11:56 33.672555 -117.871061 218 59ft 0kts

Navigation Log

Ident Type
Flight plan parsing failed, navigation log unavailable